Domov               UVHVVR             MKGP            O straneh              
ZDRAVSTVENO VARSTVO RASTLIN
  MREŽA AGROMET. POSTAJ
 ► PROGNOSTIČNA OBVESTILA
AGROMETEOROLOŠKI PODATKI -
ARSO
OBVLADOVANJE TVEGANJ ZARADI
NEUGODNIH VREMENSKIH RAZMER
  ► NARAVNE NESREČE
  ► SUŠA/MOČA
  ► NAMAKANJE
  ► ŽLED (gozdarstvo)
KARTOGRAFSKI PRIKAZI
SPLETNE POVEZAVE
PROJEKTI IN PUBLIKACIJE

AGROMETEOROLOŠKA MREŽA: VREMENSKE POSTAJE IN FENOLOŠKA OPAZOVANJA

Pregled podatkov za lokacijo Maribor - BTŠ, meteorološka postaja 35810

Pregled senzorjev na lokaciji

ID Ime Zadnja
vrednost
Datum in čas
zadnje
spremembe
(Lokalni čas)
Tip
senzorja
4297 Omočenost lista (U) 0 U 9.12.2019 15:00 A730WET
1723 Padavine (mm) 0 mm 9.12.2019 15:00 Generic 0.2 mm
1722 Relativna vlaga 2 m (% RH) 67.81 % RH 9.12.2019 15:00 Generic 0 - 100 %
1721 Temperatura 2 m (°C) 5.86 °C 9.12.2019 15:00 Generic -40 - +60 °C
4296 Smer vetra (°) 254.33 ° 9.12.2019 15:00 Generic 0 - 360
4295 Hitrost vetra (km/h) 2.59 km/h 9.12.2019 15:00 Generic 100 km/h

Pregled podatkov zadnjih 24 ur

Zap.
št.
Datum in čas
(Centralno
evropski čas)
Maribor - BTŠ
Omočenost
lista
Padavine Relativna
vlaga
2
m
Temperatura
2
m
Smer
vetra
Hitrost
vetra
1 9.12.2019 15:00 0 0 67.8 5.9 254.3 2.6
2 9.12.2019 14:30 0 0 70.9 5.7 1.1 1.6
3 9.12.2019 14:00 0 0 70 5.6 269.7 2.2
4 9.12.2019 13:30 0 0 70.7 5.9 128.6 1.7
5 9.12.2019 13:00 0 0 69 6 358.8 2.8
6 9.12.2019 12:30 0 0 68.5 6.1 296.9 2.7
7 9.12.2019 12:00 0 0 69 5.9 290.5 3.4
8 9.12.2019 11:30 0 0 69.2 6.1 264.2 2.2
9 9.12.2019 11:00 0 0 72.2 5.6 344.4 0.9
10 9.12.2019 10:30 0 0 70.8 5.1 264.8 1.6
11 9.12.2019 10:00 0 0 71.8 4.7 276.8 2.2
12 9.12.2019 09:30 0 0 72.2 4.3 301.6 3.7
13 9.12.2019 09:00 0 0 73.3 3.9 284.7 4
14 9.12.2019 08:30 1 0 74.3 3.5 284 4.2
15 9.12.2019 08:00 10 0 77.2 2.9 291.4 3.1
16 9.12.2019 07:30 10 0 77.7 2.8 259.7 2.5
17 9.12.2019 07:00 9 0 76.8 3.1 286.9 2.4
18 9.12.2019 06:30 1 0 85.8 1.2 243.6 1.6
19 9.12.2019 06:00 0 0 87.9 0.3 257.9 0.6
20 9.12.2019 05:30 0 0 88.6 0.5 254.5 1.5
21 9.12.2019 05:00 0 0 94 -1.3 248.3 1.1
22 9.12.2019 04:30 0 0 93.9 -1.6 75.2 0.6
23 9.12.2019 04:00 0 0 94.6 -1.9 297.1 1.1
24 9.12.2019 03:30 0 0 94.3 -1.9 354.3 0.6
25 9.12.2019 03:00 0 0 93.4 -1.9 24.8 0.7
26 9.12.2019 02:30 0 0 92.4 -1.3 350.2 0.6
27 9.12.2019 02:00 0 0 91.7 -0.7 9.5 0.6
28 9.12.2019 01:30 0 0 90.5 -0.4 60 0.8
29 9.12.2019 01:00 0 0 89.5 -0.2 136.4 0.5
30 9.12.2019 00:30 1 0 82.9 1.5 87.6 1.3
31 9.12.2019 00:00 0 0 89.1 0.3 277 1.4
32 8.12.2019 23:30 0 0 91.6 -0.3 351.6 0.9
33 8.12.2019 23:00 0 0 94.2 -0.9 21.5 1
34 8.12.2019 22:30 0 0 94.7 -1.6 112.5 0.8
35 8.12.2019 22:00 0 0 94.2 -1.5 108.9 0.6
36 8.12.2019 21:30 0 0 93.9 -1.3 41.8 0.9
37 8.12.2019 21:00 0 0 93 -1.3 47.7 0.5
38 8.12.2019 20:30 0 0 92 -0.7 304.7 0.5
39 8.12.2019 20:00 2 0 89 0 12.8 0.5
40 8.12.2019 19:30 6 0 83 1.6 67.7 1
41 8.12.2019 19:00 5 0 78.9 2.8 271.8 1.1
42 8.12.2019 18:30 3 0 80.5 2.4 240.3 0.7
43 8.12.2019 18:00 0 0 77.5 3.1 304.3 1.1
44 8.12.2019 17:30 0 0 70.6 4.8 253.5 2.7
45 8.12.2019 17:00 0 0 68.7 5.3 296.7 2.7
46 8.12.2019 16:30 0 0 67.7 5.6 262.8 1.6
47 8.12.2019 16:00 0 0 63.5 7 262.9 1.5
48 8.12.2019 15:30 0 0 58.2 9.4 252 1.7
© 2011 Ministrstvo za kmetijstvo, gozdarstvo in prehrano. Vse pravice pridržane.